sensor_id;sensor_type;location;lat;lon;timestamp;P1;durP1;ratioP1;P2;durP2;ratioP2
77105;SDS011;66057;54.718;18.426;2023-12-14T00:02:00;2.28;;;1.20;;
77105;SDS011;66057;54.718;18.426;2023-12-14T00:04:26;2.53;;;1.15;;
77105;SDS011;66057;54.718;18.426;2023-12-14T00:06:51;2.13;;;1.15;;
77105;SDS011;66057;54.718;18.426;2023-12-14T00:09:19;2.35;;;1.33;;
77105;SDS011;66057;54.718;18.426;2023-12-14T00:11:45;2.35;;;1.15;;
77105;SDS011;66057;54.718;18.426;2023-12-14T00:14:11;2.88;;;1.20;;
77105;SDS011;66057;54.718;18.426;2023-12-14T00:16:37;2.13;;;1.20;;
77105;SDS011;66057;54.718;18.426;2023-12-14T00:19:02;2.25;;;1.52;;
77105;SDS011;66057;54.718;18.426;2023-12-14T00:21:28;4.18;;;1.17;;
77105;SDS011;66057;54.718;18.426;2023-12-14T00:23:53;1.33;;;0.80;;
77105;SDS011;66057;54.718;18.426;2023-12-14T00:26:19;1.30;;;1.02;;
77105;SDS011;66057;54.718;18.426;2023-12-14T00:28:45;1.88;;;0.60;;
77105;SDS011;66057;54.718;18.426;2023-12-14T00:31:10;1.42;;;1.05;;
77105;SDS011;66057;54.718;18.426;2023-12-14T00:33:36;2.05;;;1.20;;
77105;SDS011;66057;54.718;18.426;2023-12-14T00:36:01;2.10;;;1.25;;
77105;SDS011;66057;54.718;18.426;2023-12-14T00:38:27;1.35;;;1.17;;
77105;SDS011;66057;54.718;18.426;2023-12-14T00:40:52;1.20;;;1.10;;
77105;SDS011;66057;54.718;18.426;2023-12-14T00:43:18;2.15;;;1.40;;
77105;SDS011;66057;54.718;18.426;2023-12-14T00:45:43;1.55;;;1.23;;
77105;SDS011;66057;54.718;18.426;2023-12-14T00:48:09;3.00;;;1.30;;
77105;SDS011;66057;54.718;18.426;2023-12-14T00:50:34;1.02;;;0.55;;
77105;SDS011;66057;54.718;18.426;2023-12-14T00:53:00;4.53;;;1.40;;
77105;SDS011;66057;54.718;18.426;2023-12-14T00:55:26;2.50;;;1.05;;
77105;SDS011;66057;54.718;18.426;2023-12-14T00:57:52;1.83;;;1.10;;
77105;SDS011;66057;54.718;18.426;2023-12-14T01:00:18;3.10;;;1.10;;
77105;SDS011;66057;54.718;18.426;2023-12-14T01:02:44;1.30;;;1.05;;
77105;SDS011;66057;54.718;18.426;2023-12-14T01:05:09;1.77;;;0.70;;
77105;SDS011;66057;54.718;18.426;2023-12-14T01:07:35;1.50;;;0.98;;
77105;SDS011;66057;54.718;18.426;2023-12-14T01:10:00;3.75;;;1.17;;
77105;SDS011;66057;54.718;18.426;2023-12-14T01:12:26;1.45;;;1.02;;
77105;SDS011;66057;54.718;18.426;2023-12-14T01:14:51;1.00;;;0.50;;
77105;SDS011;66057;54.718;18.426;2023-12-14T01:17:17;2.03;;;1.08;;
77105;SDS011;66057;54.718;18.426;2023-12-14T01:19:43;1.95;;;1.50;;
77105;SDS011;66057;54.718;18.426;2023-12-14T01:22:09;3.13;;;1.90;;
77105;SDS011;66057;54.718;18.426;2023-12-14T01:24:34;5.80;;;1.75;;
77105;SDS011;66057;54.718;18.426;2023-12-14T01:27:00;2.25;;;1.02;;
77105;SDS011;66057;54.718;18.426;2023-12-14T01:29:26;2.20;;;1.17;;
77105;SDS011;66057;54.718;18.426;2023-12-14T01:31:51;1.88;;;1.00;;
77105;SDS011;66057;54.718;18.426;2023-12-14T01:34:17;2.17;;;1.27;;
77105;SDS011;66057;54.718;18.426;2023-12-14T01:36:43;1.20;;;1.00;;
77105;SDS011;66057;54.718;18.426;2023-12-14T01:39:08;4.28;;;1.05;;
77105;SDS011;66057;54.718;18.426;2023-12-14T01:41:34;2.10;;;1.25;;
77105;SDS011;66057;54.718;18.426;2023-12-14T01:43:59;1.95;;;1.27;;
77105;SDS011;66057;54.718;18.426;2023-12-14T01:46:25;2.45;;;1.27;;
77105;SDS011;66057;54.718;18.426;2023-12-14T01:48:50;1.33;;;1.02;;
77105;SDS011;66057;54.718;18.426;2023-12-14T01:51:18;1.63;;;1.17;;
77105;SDS011;66057;54.718;18.426;2023-12-14T01:53:44;1.58;;;1.00;;
77105;SDS011;66057;54.718;18.426;2023-12-14T01:56:09;1.52;;;0.95;;
77105;SDS011;66057;54.718;18.426;2023-12-14T01:58:35;2.55;;;1.30;;
77105;SDS011;66057;54.718;18.426;2023-12-14T02:01:14;1.70;;;1.10;;
77105;SDS011;66057;54.718;18.426;2023-12-14T02:03:45;1.70;;;1.35;;
77105;SDS011;66057;54.718;18.426;2023-12-14T02:06:10;2.47;;;1.05;;
77105;SDS011;66057;54.718;18.426;2023-12-14T02:08:36;2.65;;;1.05;;
77105;SDS011;66057;54.718;18.426;2023-12-14T02:11:02;2.28;;;1.75;;
77105;SDS011;66057;54.718;18.426;2023-12-14T02:13:27;1.83;;;1.15;;
77105;SDS011;66057;54.718;18.426;2023-12-14T02:15:53;5.47;;;1.40;;
77105;SDS011;66057;54.718;18.426;2023-12-14T02:18:19;2.42;;;0.85;;
77105;SDS011;66057;54.718;18.426;2023-12-14T02:20:44;1.50;;;1.40;;
77105;SDS011;66057;54.718;18.426;2023-12-14T02:23:10;2.97;;;0.93;;
77105;SDS011;66057;54.718;18.426;2023-12-14T02:25:35;1.38;;;0.57;;
77105;SDS011;66057;54.718;18.426;2023-12-14T02:28:01;2.45;;;0.80;;
77105;SDS011;66057;54.718;18.426;2023-12-14T02:30:26;2.15;;;1.00;;
77105;SDS011;66057;54.718;18.426;2023-12-14T02:32:52;1.45;;;1.00;;
77105;SDS011;66057;54.718;18.426;2023-12-14T02:35:18;2.78;;;1.20;;
77105;SDS011;66057;54.718;18.426;2023-12-14T02:37:43;1.50;;;0.90;;
77105;SDS011;66057;54.718;18.426;2023-12-14T02:40:09;3.00;;;0.93;;
77105;SDS011;66057;54.718;18.426;2023-12-14T02:42:35;1.00;;;0.80;;
77105;SDS011;66057;54.718;18.426;2023-12-14T02:45:01;1.40;;;0.82;;
77105;SDS011;66057;54.718;18.426;2023-12-14T02:47:27;1.50;;;1.00;;
77105;SDS011;66057;54.718;18.426;2023-12-14T02:49:53;1.73;;;0.90;;
77105;SDS011;66057;54.718;18.426;2023-12-14T02:52:19;1.27;;;0.98;;
77105;SDS011;66057;54.718;18.426;2023-12-14T02:54:45;1.35;;;0.80;;
77105;SDS011;66057;54.718;18.426;2023-12-14T02:57:10;1.15;;;0.70;;
77105;SDS011;66057;54.718;18.426;2023-12-14T02:59:36;1.45;;;1.15;;
77105;SDS011;66057;54.718;18.426;2023-12-14T03:02:01;1.30;;;0.80;;
77105;SDS011;66057;54.718;18.426;2023-12-14T03:04:27;1.40;;;1.05;;
77105;SDS011;66057;54.718;18.426;2023-12-14T03:06:52;1.85;;;0.52;;
77105;SDS011;66057;54.718;18.426;2023-12-14T03:09:19;1.67;;;0.80;;
77105;SDS011;66057;54.718;18.426;2023-12-14T03:11:45;1.35;;;1.00;;
77105;SDS011;66057;54.718;18.426;2023-12-14T03:14:10;1.17;;;0.52;;
77105;SDS011;66057;54.718;18.426;2023-12-14T03:16:36;1.50;;;0.82;;
77105;SDS011;66057;54.718;18.426;2023-12-14T03:19:02;1.92;;;0.85;;
77105;SDS011;66057;54.718;18.426;2023-12-14T03:21:28;1.67;;;0.90;;
77105;SDS011;66057;54.718;18.426;2023-12-14T03:23:54;1.67;;;1.00;;
77105;SDS011;66057;54.718;18.426;2023-12-14T03:26:20;0.65;;;0.63;;
77105;SDS011;66057;54.718;18.426;2023-12-14T03:28:45;0.98;;;0.88;;
77105;SDS011;66057;54.718;18.426;2023-12-14T03:31:11;1.33;;;1.08;;
77105;SDS011;66057;54.718;18.426;2023-12-14T03:33:38;1.02;;;0.65;;
77105;SDS011;66057;54.718;18.426;2023-12-14T03:36:04;2.05;;;0.82;;
77105;SDS011;66057;54.718;18.426;2023-12-14T03:38:30;3.20;;;1.05;;
77105;SDS011;66057;54.718;18.426;2023-12-14T03:40:56;1.70;;;0.80;;
77105;SDS011;66057;54.718;18.426;2023-12-14T03:43:22;1.88;;;0.90;;
77105;SDS011;66057;54.718;18.426;2023-12-14T03:45:47;1.42;;;0.82;;
77105;SDS011;66057;54.718;18.426;2023-12-14T03:48:13;1.70;;;1.40;;
77105;SDS011;66057;54.718;18.426;2023-12-14T03:50:38;1.65;;;1.00;;
77105;SDS011;66057;54.718;18.426;2023-12-14T03:53:04;0.93;;;0.70;;
77105;SDS011;66057;54.718;18.426;2023-12-14T03:55:29;0.85;;;0.85;;
77105;SDS011;66057;54.718;18.426;2023-12-14T03:57:55;2.20;;;0.73;;
77105;SDS011;66057;54.718;18.426;2023-12-14T04:00:21;2.17;;;0.77;;
77105;SDS011;66057;54.718;18.426;2023-12-14T04:02:46;2.05;;;0.40;;
77105;SDS011;66057;54.718;18.426;2023-12-14T04:05:12;1.30;;;0.73;;
77105;SDS011;66057;54.718;18.426;2023-12-14T04:07:38;0.75;;;0.50;;
77105;SDS011;66057;54.718;18.426;2023-12-14T04:10:10;1.98;;;1.30;;
77105;SDS011;66057;54.718;18.426;2023-12-14T04:12:38;0.93;;;0.65;;
77105;SDS011;66057;54.718;18.426;2023-12-14T04:15:04;2.05;;;1.13;;
77105;SDS011;66057;54.718;18.426;2023-12-14T04:17:30;2.50;;;0.98;;
77105;SDS011;66057;54.718;18.426;2023-12-14T04:19:56;2.20;;;0.57;;
77105;SDS011;66057;54.718;18.426;2023-12-14T04:22:21;1.88;;;1.17;;
77105;SDS011;66057;54.718;18.426;2023-12-14T04:24:47;0.85;;;0.38;;
77105;SDS011;66057;54.718;18.426;2023-12-14T04:27:12;0.82;;;0.68;;
77105;SDS011;66057;54.718;18.426;2023-12-14T04:29:38;1.38;;;0.50;;
77105;SDS011;66057;54.718;18.426;2023-12-14T04:32:04;1.52;;;0.57;;
77105;SDS011;66057;54.718;18.426;2023-12-14T04:34:29;0.73;;;0.38;;
77105;SDS011;66057;54.718;18.426;2023-12-14T04:36:55;1.15;;;0.77;;
77105;SDS011;66057;54.718;18.426;2023-12-14T04:39:26;1.30;;;0.93;;
77105;SDS011;66057;54.718;18.426;2023-12-14T04:41:51;0.52;;;0.45;;
77105;SDS011;66057;54.718;18.426;2023-12-14T04:44:20;1.45;;;0.93;;
77105;SDS011;66057;54.718;18.426;2023-12-14T04:46:47;1.10;;;0.65;;
77105;SDS011;66057;54.718;18.426;2023-12-14T04:49:12;1.50;;;0.63;;
77105;SDS011;66057;54.718;18.426;2023-12-14T04:51:38;1.20;;;0.70;;
77105;SDS011;66057;54.718;18.426;2023-12-14T04:54:03;0.95;;;0.60;;
77105;SDS011;66057;54.718;18.426;2023-12-14T04:56:29;0.70;;;0.47;;
77105;SDS011;66057;54.718;18.426;2023-12-14T04:58:54;2.83;;;0.73;;
77105;SDS011;66057;54.718;18.426;2023-12-14T05:01:20;1.48;;;0.80;;
77105;SDS011;66057;54.718;18.426;2023-12-14T05:03:46;0.95;;;0.70;;
77105;SDS011;66057;54.718;18.426;2023-12-14T05:06:11;0.75;;;0.50;;
77105;SDS011;66057;54.718;18.426;2023-12-14T05:08:37;0.63;;;0.63;;
77105;SDS011;66057;54.718;18.426;2023-12-14T05:11:03;2.28;;;0.80;;
77105;SDS011;66057;54.718;18.426;2023-12-14T05:13:28;0.88;;;0.55;;
77105;SDS011;66057;54.718;18.426;2023-12-14T05:15:54;0.68;;;0.52;;
77105;SDS011;66057;54.718;18.426;2023-12-14T05:18:19;1.08;;;0.80;;
77105;SDS011;66057;54.718;18.426;2023-12-14T05:20:46;2.83;;;1.10;;
77105;SDS011;66057;54.718;18.426;2023-12-14T05:23:12;1.83;;;0.70;;
77105;SDS011;66057;54.718;18.426;2023-12-14T05:25:38;1.17;;;1.08;;
77105;SDS011;66057;54.718;18.426;2023-12-14T05:28:03;0.70;;;0.70;;
77105;SDS011;66057;54.718;18.426;2023-12-14T05:30:29;2.15;;;0.60;;
77105;SDS011;66057;54.718;18.426;2023-12-14T05:32:55;0.93;;;0.80;;
77105;SDS011;66057;54.718;18.426;2023-12-14T05:35:20;1.15;;;0.73;;
77105;SDS011;66057;54.718;18.426;2023-12-14T05:37:46;1.25;;;1.02;;
77105;SDS011;66057;54.718;18.426;2023-12-14T05:40:12;1.30;;;1.17;;
77105;SDS011;66057;54.718;18.426;2023-12-14T05:42:37;1.08;;;0.82;;
77105;SDS011;66057;54.718;18.426;2023-12-14T05:45:04;2.20;;;0.90;;
77105;SDS011;66057;54.718;18.426;2023-12-14T05:47:29;1.85;;;0.93;;
77105;SDS011;66057;54.718;18.426;2023-12-14T05:50:00;2.22;;;0.85;;
77105;SDS011;66057;54.718;18.426;2023-12-14T05:52:26;1.58;;;0.77;;
77105;SDS011;66057;54.718;18.426;2023-12-14T05:54:51;2.25;;;1.38;;
77105;SDS011;66057;54.718;18.426;2023-12-14T05:57:17;3.30;;;1.67;;
77105;SDS011;66057;54.718;18.426;2023-12-14T05:59:42;2.88;;;1.00;;
77105;SDS011;66057;54.718;18.426;2023-12-14T06:02:08;1.90;;;1.15;;
77105;SDS011;66057;54.718;18.426;2023-12-14T06:04:34;1.38;;;0.80;;
77105;SDS011;66057;54.718;18.426;2023-12-14T06:07:00;1.00;;;0.77;;
77105;SDS011;66057;54.718;18.426;2023-12-14T06:09:25;1.25;;;1.13;;
77105;SDS011;66057;54.718;18.426;2023-12-14T06:12:02;1.55;;;1.27;;
77105;SDS011;66057;54.718;18.426;2023-12-14T06:14:28;1.75;;;1.42;;
77105;SDS011;66057;54.718;18.426;2023-12-14T06:16:53;2.63;;;1.58;;
77105;SDS011;66057;54.718;18.426;2023-12-14T06:19:19;3.53;;;2.03;;
77105;SDS011;66057;54.718;18.426;2023-12-14T06:21:45;4.38;;;2.50;;
77105;SDS011;66057;54.718;18.426;2023-12-14T06:24:10;3.15;;;1.55;;
77105;SDS011;66057;54.718;18.426;2023-12-14T06:26:45;2.88;;;1.65;;
77105;SDS011;66057;54.718;18.426;2023-12-14T06:29:11;3.40;;;1.55;;
77105;SDS011;66057;54.718;18.426;2023-12-14T06:31:37;1.33;;;1.23;;
77105;SDS011;66057;54.718;18.426;2023-12-14T06:34:03;2.65;;;1.85;;
77105;SDS011;66057;54.718;18.426;2023-12-14T06:36:32;2.13;;;1.20;;
77105;SDS011;66057;54.718;18.426;2023-12-14T06:38:59;2.15;;;1.40;;
77105;SDS011;66057;54.718;18.426;2023-12-14T06:41:24;2.17;;;1.38;;
77105;SDS011;66057;54.718;18.426;2023-12-14T06:43:50;1.92;;;1.13;;
77105;SDS011;66057;54.718;18.426;2023-12-14T06:46:17;2.47;;;1.25;;
77105;SDS011;66057;54.718;18.426;2023-12-14T06:48:43;1.67;;;1.35;;
77105;SDS011;66057;54.718;18.426;2023-12-14T06:51:08;3.35;;;1.25;;
77105;SDS011;66057;54.718;18.426;2023-12-14T06:53:34;1.75;;;0.93;;
77105;SDS011;66057;54.718;18.426;2023-12-14T06:56:00;1.70;;;1.38;;
77105;SDS011;66057;54.718;18.426;2023-12-14T06:58:25;2.72;;;1.50;;
77105;SDS011;66057;54.718;18.426;2023-12-14T07:00:51;2.05;;;1.10;;
77105;SDS011;66057;54.718;18.426;2023-12-14T07:03:17;6.88;;;2.45;;
77105;SDS011;66057;54.718;18.426;2023-12-14T07:05:42;2.63;;;2.17;;
77105;SDS011;66057;54.718;18.426;2023-12-14T07:08:08;6.22;;;3.08;;
77105;SDS011;66057;54.718;18.426;2023-12-14T07:10:33;5.72;;;2.80;;
77105;SDS011;66057;54.718;18.426;2023-12-14T07:12:59;5.60;;;3.38;;
77105;SDS011;66057;54.718;18.426;2023-12-14T07:15:25;3.97;;;2.60;;
77105;SDS011;66057;54.718;18.426;2023-12-14T07:17:50;3.38;;;2.47;;
77105;SDS011;66057;54.718;18.426;2023-12-14T07:20:16;2.85;;;2.60;;
77105;SDS011;66057;54.718;18.426;2023-12-14T07:22:41;6.43;;;3.78;;
77105;SDS011;66057;54.718;18.426;2023-12-14T07:25:08;5.00;;;2.40;;
77105;SDS011;66057;54.718;18.426;2023-12-14T07:27:34;4.50;;;2.35;;
77105;SDS011;66057;54.718;18.426;2023-12-14T07:30:00;3.47;;;2.15;;
77105;SDS011;66057;54.718;18.426;2023-12-14T07:32:26;2.70;;;1.92;;
77105;SDS011;66057;54.718;18.426;2023-12-14T07:34:52;6.78;;;2.40;;
77105;SDS011;66057;54.718;18.426;2023-12-14T07:37:18;4.80;;;2.08;;
77105;SDS011;66057;54.718;18.426;2023-12-14T07:39:43;4.97;;;2.47;;
77105;SDS011;66057;54.718;18.426;2023-12-14T07:42:09;3.65;;;2.50;;
77105;SDS011;66057;54.718;18.426;2023-12-14T07:44:34;7.10;;;3.60;;
77105;SDS011;66057;54.718;18.426;2023-12-14T07:47:01;8.68;;;2.90;;
77105;SDS011;66057;54.718;18.426;2023-12-14T07:49:27;7.22;;;3.88;;
77105;SDS011;66057;54.718;18.426;2023-12-14T07:51:53;4.22;;;2.47;;
77105;SDS011;66057;54.718;18.426;2023-12-14T07:54:18;7.68;;;3.85;;
77105;SDS011;66057;54.718;18.426;2023-12-14T07:56:44;6.63;;;4.05;;
77105;SDS011;66057;54.718;18.426;2023-12-14T07:59:10;6.00;;;3.45;;
77105;SDS011;66057;54.718;18.426;2023-12-14T08:01:35;7.93;;;2.55;;
77105;SDS011;66057;54.718;18.426;2023-12-14T08:04:01;3.25;;;1.80;;
77105;SDS011;66057;54.718;18.426;2023-12-14T08:06:27;4.75;;;2.08;;
77105;SDS011;66057;54.718;18.426;2023-12-14T08:08:52;3.63;;;2.20;;
77105;SDS011;66057;54.718;18.426;2023-12-14T08:11:18;5.30;;;2.58;;
77105;SDS011;66057;54.718;18.426;2023-12-14T08:13:43;3.92;;;2.90;;
77105;SDS011;66057;54.718;18.426;2023-12-14T08:16:09;5.15;;;3.17;;
77105;SDS011;66057;54.718;18.426;2023-12-14T08:18:36;6.00;;;3.42;;
77105;SDS011;66057;54.718;18.426;2023-12-14T08:21:02;10.55;;;3.70;;
77105;SDS011;66057;54.718;18.426;2023-12-14T08:23:28;5.82;;;2.78;;
77105;SDS011;66057;54.718;18.426;2023-12-14T08:25:55;8.50;;;4.25;;
77105;SDS011;66057;54.718;18.426;2023-12-14T08:28:22;6.22;;;2.67;;
77105;SDS011;66057;54.718;18.426;2023-12-14T08:30:48;7.13;;;3.55;;
77105;SDS011;66057;54.718;18.426;2023-12-14T08:33:14;4.85;;;3.05;;
77105;SDS011;66057;54.718;18.426;2023-12-14T08:35:39;3.53;;;2.65;;
77105;SDS011;66057;54.718;18.426;2023-12-14T08:38:05;6.60;;;3.58;;
77105;SDS011;66057;54.718;18.426;2023-12-14T08:40:32;5.28;;;2.97;;
77105;SDS011;66057;54.718;18.426;2023-12-14T08:42:58;8.43;;;4.05;;
77105;SDS011;66057;54.718;18.426;2023-12-14T08:45:24;5.43;;;3.10;;
77105;SDS011;66057;54.718;18.426;2023-12-14T08:47:49;4.13;;;2.67;;
77105;SDS011;66057;54.718;18.426;2023-12-14T08:50:15;11.00;;;4.05;;
77105;SDS011;66057;54.718;18.426;2023-12-14T08:52:41;10.07;;;4.03;;
77105;SDS011;66057;54.718;18.426;2023-12-14T08:55:07;10.80;;;5.82;;
77105;SDS011;66057;54.718;18.426;2023-12-14T08:57:33;34.70;;;14.55;;
77105;SDS011;66057;54.718;18.426;2023-12-14T08:59:59;18.02;;;7.95;;
77105;SDS011;66057;54.718;18.426;2023-12-14T09:02:24;13.23;;;5.20;;
77105;SDS011;66057;54.718;18.426;2023-12-14T09:04:50;6.68;;;3.58;;
77105;SDS011;66057;54.718;18.426;2023-12-14T09:07:17;4.05;;;2.15;;
77105;SDS011;66057;54.718;18.426;2023-12-14T09:09:42;2.25;;;1.30;;
77105;SDS011;66057;54.718;18.426;2023-12-14T09:12:09;1.85;;;1.15;;
77105;SDS011;66057;54.718;18.426;2023-12-14T09:14:34;3.20;;;0.90;;
77105;SDS011;66057;54.718;18.426;2023-12-14T09:17:00;1.90;;;0.77;;
77105;SDS011;66057;54.718;18.426;2023-12-14T09:19:26;3.17;;;1.17;;
77105;SDS011;66057;54.718;18.426;2023-12-14T09:21:51;1.58;;;0.93;;
77105;SDS011;66057;54.718;18.426;2023-12-14T09:24:17;3.53;;;1.63;;
77105;SDS011;66057;54.718;18.426;2023-12-14T09:26:43;2.40;;;1.38;;
77105;SDS011;66057;54.718;18.426;2023-12-14T09:29:09;2.95;;;1.15;;
77105;SDS011;66057;54.718;18.426;2023-12-14T09:31:34;2.35;;;1.13;;
77105;SDS011;66057;54.718;18.426;2023-12-14T09:34:00;2.72;;;1.85;;
77105;SDS011;66057;54.718;18.426;2023-12-14T09:36:26;1.70;;;1.33;;
77105;SDS011;66057;54.718;18.426;2023-12-14T09:38:52;3.38;;;1.58;;
77105;SDS011;66057;54.718;18.426;2023-12-14T09:41:17;4.35;;;2.88;;
77105;SDS011;66057;54.718;18.426;2023-12-14T09:43:44;5.72;;;3.00;;
77105;SDS011;66057;54.718;18.426;2023-12-14T09:46:10;5.45;;;1.75;;
77105;SDS011;66057;54.718;18.426;2023-12-14T09:48:36;2.30;;;1.33;;
77105;SDS011;66057;54.718;18.426;2023-12-14T09:51:01;2.63;;;0.90;;
77105;SDS011;66057;54.718;18.426;2023-12-14T09:53:27;3.90;;;1.50;;
77105;SDS011;66057;54.718;18.426;2023-12-14T09:55:53;2.58;;;1.30;;
77105;SDS011;66057;54.718;18.426;2023-12-14T09:58:19;1.95;;;1.35;;
77105;SDS011;66057;54.718;18.426;2023-12-14T10:00:44;1.67;;;0.85;;
77105;SDS011;66057;54.718;18.426;2023-12-14T10:03:24;3.40;;;0.98;;
77105;SDS011;66057;54.718;18.426;2023-12-14T10:05:51;3.63;;;1.05;;
77105;SDS011;66057;54.718;18.426;2023-12-14T10:08:17;3.88;;;0.70;;
77105;SDS011;66057;54.718;18.426;2023-12-14T10:10:43;1.77;;;1.50;;
77105;SDS011;66057;54.718;18.426;2023-12-14T10:13:09;3.70;;;0.90;;
77105;SDS011;66057;54.718;18.426;2023-12-14T10:15:45;3.42;;;1.92;;
77105;SDS011;66057;54.718;18.426;2023-12-14T10:18:12;1.75;;;1.17;;
77105;SDS011;66057;54.718;18.426;2023-12-14T10:20:38;3.75;;;1.40;;
77105;SDS011;66057;54.718;18.426;2023-12-14T10:23:06;3.53;;;1.23;;
77105;SDS011;66057;54.718;18.426;2023-12-14T10:25:32;1.90;;;0.60;;
77105;SDS011;66057;54.718;18.426;2023-12-14T10:27:58;2.25;;;1.70;;
77105;SDS011;66057;54.718;18.426;2023-12-14T10:32:51;1.00;;;0.52;;
77105;SDS011;66057;54.718;18.426;2023-12-14T10:35:16;1.48;;;0.88;;
77105;SDS011;66057;54.718;18.426;2023-12-14T10:37:42;3.05;;;1.67;;
77105;SDS011;66057;54.718;18.426;2023-12-14T10:40:11;1.73;;;0.40;;
77105;SDS011;66057;54.718;18.426;2023-12-14T10:42:39;1.40;;;1.13;;
77105;SDS011;66057;54.718;18.426;2023-12-14T10:45:06;1.55;;;0.63;;
77105;SDS011;66057;54.718;18.426;2023-12-14T10:47:34;3.15;;;0.65;;
77105;SDS011;66057;54.718;18.426;2023-12-14T10:50:00;0.43;;;0.15;;
77105;SDS011;66057;54.718;18.426;2023-12-14T10:52:26;0.70;;;0.22;;
77105;SDS011;66057;54.718;18.426;2023-12-14T10:54:53;0.75;;;0.60;;
77105;SDS011;66057;54.718;18.426;2023-12-14T10:57:20;1.15;;;0.95;;
77105;SDS011;66057;54.718;18.426;2023-12-14T10:59:48;1.80;;;0.28;;
77105;SDS011;66057;54.718;18.426;2023-12-14T11:02:14;0.60;;;0.30;;
77105;SDS011;66057;54.718;18.426;2023-12-14T11:04:56;1.10;;;0.60;;
77105;SDS011;66057;54.718;18.426;2023-12-14T11:10:06;0.40;;;0.10;;
77105;SDS011;66057;54.718;18.426;2023-12-14T11:12:33;0.98;;;0.50;;
77105;SDS011;66057;54.718;18.426;2023-12-14T11:14:59;2.00;;;0.88;;
77105;SDS011;66057;54.718;18.426;2023-12-14T11:17:24;0.50;;;0.40;;
77105;SDS011;66057;54.718;18.426;2023-12-14T11:19:50;4.13;;;1.50;;
77105;SDS011;66057;54.718;18.426;2023-12-14T11:22:23;1.13;;;0.63;;
77105;SDS011;66057;54.718;18.426;2023-12-14T11:24:51;1.27;;;0.60;;
77105;SDS011;66057;54.718;18.426;2023-12-14T11:27:20;1.80;;;0.68;;
77105;SDS011;66057;54.718;18.426;2023-12-14T11:29:45;0.70;;;0.63;;
77105;SDS011;66057;54.718;18.426;2023-12-14T11:32:11;0.77;;;0.60;;
77105;SDS011;66057;54.718;18.426;2023-12-14T11:34:38;0.98;;;0.93;;
77105;SDS011;66057;54.718;18.426;2023-12-14T11:37:04;16.75;;;5.22;;
77105;SDS011;66057;54.718;18.426;2023-12-14T11:39:31;34.58;;;11.40;;
77105;SDS011;66057;54.718;18.426;2023-12-14T11:42:00;33.17;;;11.65;;
77105;SDS011;66057;54.718;18.426;2023-12-14T11:44:26;49.15;;;18.20;;
77105;SDS011;66057;54.718;18.426;2023-12-14T11:46:51;64.50;;;23.65;;
77105;SDS011;66057;54.718;18.426;2023-12-14T11:49:17;41.33;;;13.52;;
77105;SDS011;66057;54.718;18.426;2023-12-14T11:51:45;5.43;;;3.08;;
77105;SDS011;66057;54.718;18.426;2023-12-14T11:54:11;3.17;;;1.70;;
77105;SDS011;66057;54.718;18.426;2023-12-14T11:56:37;4.68;;;3.90;;
77105;SDS011;66057;54.718;18.426;2023-12-14T11:59:02;3.92;;;2.88;;
77105;SDS011;66057;54.718;18.426;2023-12-14T12:01:28;2.95;;;1.88;;
77105;SDS011;66057;54.718;18.426;2023-12-14T12:03:53;2.88;;;1.50;;
77105;SDS011;66057;54.718;18.426;2023-12-14T12:06:20;2.67;;;2.05;;
77105;SDS011;66057;54.718;18.426;2023-12-14T12:08:46;3.50;;;2.70;;
77105;SDS011;66057;54.718;18.426;2023-12-14T12:11:15;2.85;;;2.10;;
77105;SDS011;66057;54.718;18.426;2023-12-14T12:13:41;3.17;;;1.85;;
77105;SDS011;66057;54.718;18.426;2023-12-14T12:16:06;1.73;;;1.40;;
77105;SDS011;66057;54.718;18.426;2023-12-14T12:18:32;2.47;;;1.85;;
77105;SDS011;66057;54.718;18.426;2023-12-14T12:20:57;3.60;;;1.88;;
77105;SDS011;66057;54.718;18.426;2023-12-14T12:23:29;11.25;;;4.93;;
77105;SDS011;66057;54.718;18.426;2023-12-14T12:25:54;9.45;;;4.20;;
77105;SDS011;66057;54.718;18.426;2023-12-14T12:28:21;21.27;;;9.23;;
77105;SDS011;66057;54.718;18.426;2023-12-14T12:30:47;38.38;;;16.05;;
77105;SDS011;66057;54.718;18.426;2023-12-14T12:33:12;28.10;;;16.08;;
77105;SDS011;66057;54.718;18.426;2023-12-14T12:35:38;31.98;;;16.92;;
77105;SDS011;66057;54.718;18.426;2023-12-14T12:38:04;34.65;;;17.40;;
77105;SDS011;66057;54.718;18.426;2023-12-14T12:40:29;37.88;;;15.50;;
77105;SDS011;66057;54.718;18.426;2023-12-14T12:42:56;28.60;;;12.40;;
77105;SDS011;66057;54.718;18.426;2023-12-14T12:45:23;20.45;;;8.88;;
77105;SDS011;66057;54.718;18.426;2023-12-14T12:47:53;19.27;;;10.25;;
77105;SDS011;66057;54.718;18.426;2023-12-14T12:50:18;25.38;;;10.75;;
77105;SDS011;66057;54.718;18.426;2023-12-14T12:52:44;29.70;;;10.60;;
77105;SDS011;66057;54.718;18.426;2023-12-14T12:55:14;37.03;;;15.70;;
77105;SDS011;66057;54.718;18.426;2023-12-14T12:57:39;62.17;;;20.55;;
77105;SDS011;66057;54.718;18.426;2023-12-14T13:00:07;46.13;;;20.38;;
77105;SDS011;66057;54.718;18.426;2023-12-14T13:02:42;64.85;;;25.42;;
77105;SDS011;66057;54.718;18.426;2023-12-14T13:05:09;57.00;;;22.77;;
77105;SDS011;66057;54.718;18.426;2023-12-14T13:07:35;44.75;;;20.80;;
77105;SDS011;66057;54.718;18.426;2023-12-14T13:10:02;41.20;;;17.00;;
77105;SDS011;66057;54.718;18.426;2023-12-14T13:12:29;14.15;;;7.40;;
77105;SDS011;66057;54.718;18.426;2023-12-14T13:14:54;7.30;;;4.63;;
77105;SDS011;66057;54.718;18.426;2023-12-14T13:17:20;3.95;;;3.30;;
77105;SDS011;66057;54.718;18.426;2023-12-14T13:19:46;7.18;;;3.50;;
77105;SDS011;66057;54.718;18.426;2023-12-14T13:22:11;7.13;;;4.43;;
77105;SDS011;66057;54.718;18.426;2023-12-14T13:24:37;3.90;;;2.80;;
77105;SDS011;66057;54.718;18.426;2023-12-14T13:27:03;5.55;;;2.65;;
77105;SDS011;66057;54.718;18.426;2023-12-14T13:29:29;4.55;;;2.20;;
77105;SDS011;66057;54.718;18.426;2023-12-14T13:31:57;3.60;;;1.83;;
77105;SDS011;66057;54.718;18.426;2023-12-14T13:34:23;1.90;;;0.70;;
77105;SDS011;66057;54.718;18.426;2023-12-14T13:36:48;1.48;;;0.70;;
77105;SDS011;66057;54.718;18.426;2023-12-14T13:39:14;0.80;;;0.80;;
77105;SDS011;66057;54.718;18.426;2023-12-14T13:41:39;0.63;;;0.60;;
77105;SDS011;66057;54.718;18.426;2023-12-14T13:44:05;1.30;;;0.80;;
77105;SDS011;66057;54.718;18.426;2023-12-14T13:46:30;2.20;;;1.23;;
77105;SDS011;66057;54.718;18.426;2023-12-14T13:48:56;1.55;;;0.82;;
77105;SDS011;66057;54.718;18.426;2023-12-14T13:51:22;1.33;;;1.20;;
77105;SDS011;66057;54.718;18.426;2023-12-14T13:53:47;1.02;;;0.90;;
77105;SDS011;66057;54.718;18.426;2023-12-14T13:56:13;1.35;;;0.85;;
77105;SDS011;66057;54.718;18.426;2023-12-14T13:58:39;2.83;;;1.20;;
77105;SDS011;66057;54.718;18.426;2023-12-14T14:01:07;1.92;;;0.95;;
77105;SDS011;66057;54.718;18.426;2023-12-14T14:03:33;1.88;;;1.10;;
77105;SDS011;66057;54.718;18.426;2023-12-14T14:05:59;2.35;;;0.90;;
77105;SDS011;66057;54.718;18.426;2023-12-14T14:08:24;1.75;;;0.85;;
77105;SDS011;66057;54.718;18.426;2023-12-14T14:10:50;1.52;;;1.42;;
77105;SDS011;66057;54.718;18.426;2023-12-14T14:13:15;3.45;;;1.00;;
77105;SDS011;66057;54.718;18.426;2023-12-14T14:15:41;1.90;;;1.17;;
77105;SDS011;66057;54.718;18.426;2023-12-14T14:18:07;2.35;;;0.88;;
77105;SDS011;66057;54.718;18.426;2023-12-14T14:20:32;3.83;;;1.50;;
77105;SDS011;66057;54.718;18.426;2023-12-14T14:22:58;0.98;;;0.60;;
77105;SDS011;66057;54.718;18.426;2023-12-14T14:25:25;0.77;;;0.50;;
77105;SDS011;66057;54.718;18.426;2023-12-14T14:27:51;3.53;;;1.17;;
77105;SDS011;66057;54.718;18.426;2023-12-14T14:30:17;1.38;;;0.80;;
77105;SDS011;66057;54.718;18.426;2023-12-14T14:32:43;1.05;;;0.65;;